KMCF/MCF METAR and TAF weather

Enter ICAO airport designator
Station Type Date Time Source
KMCF METAR 2021/04/13 22:56 UTC NOAA

KMCF 132256Z AUTO 31006KT 10SM CLR 27/16 A2999 RMK AO2 SLP158 T02700157 FZRANO $


Station Type Date Time Source
KMCF Decoded METAR 2021/04/13 22:56 UTC NOAA

Macdill Air Force Base, Fl., FL, United States (KMCF) 27-51N 082-30W 4M
Apr 13, 2021 - 06:56 PM EDT / 2021.04.13 2256 UTC
Wind: from the NW (310 degrees) at 7 MPH (6 KT):0
Visibility: 10 mile(s):0
Sky conditions: clear
Temperature: 80.6 F (27.0 C)
Dew Point: 60.3 F (15.7 C)
Relative Humidity: 50%
Pressure (altimeter): 29.99 in. Hg (1015 hPa)
ob: KMCF 132256Z AUTO 31006KT 10SM CLR 27/16 A2999 RMK AO2 SLP158 T02700157 FZRANO
cycle: 23

Station Type Date Time Source
KMCF TAF 2021/04/13 17:21 UTC NOAA

TAF TAF
AMD KMCF 132100Z 1317/1423 VRB06KT 9999 FEW200 QNH2997INS
BECMG 1408/1409 VRB06KT 8000 BR FEW130 QNH3007INS
BECMG 1411/1412 12008KT 9999 NSW SKC QNH3010INS TX27/1319Z TN17/1411Z

Example: see airport list